createdAt,value
2022-08-05T00:24:36.586Z,44
2022-08-05T00:54:45.156Z,41
2022-08-05T01:24:53.668Z,86
2022-08-05T01:55:03.419Z,404
2022-08-05T02:25:13.046Z,439
2022-08-05T02:55:22.794Z,760
2022-08-05T03:25:34.371Z,1064
2022-08-05T03:55:46.976Z,832
2022-08-05T04:25:58.587Z,1347
2022-08-05T04:56:14.741Z,1543
2022-08-05T05:26:28.032Z,1568
2022-08-05T05:56:40.889Z,1476
2022-08-05T06:26:53.565Z,1514
2022-08-05T06:57:12.734Z,1633
2022-08-05T07:27:29.592Z,1474
2022-08-05T07:57:47.256Z,479
2022-08-05T08:28:01.669Z,309
2022-08-05T08:58:25.997Z,233
2022-08-05T09:28:50.910Z,201
2022-08-05T09:58:56.870Z,194
2022-08-05T10:29:13.192Z,189
2022-08-05T10:59:24.090Z,177
2022-08-05T11:29:38.371Z,172
2022-08-05T11:59:48.602Z,167
2022-08-05T12:30:05.970Z,173
2022-08-05T13:00:25.048Z,159
2022-08-05T13:30:31.098Z,151
2022-08-05T14:00:30.211Z,293
2022-08-05T14:30:29.795Z,1355
2022-08-05T15:00:36.231Z,2500
2022-08-05T15:30:46.035Z,3117
2022-08-05T16:00:53.928Z,3099
2022-08-05T16:31:04.099Z,1163
2022-08-05T17:01:13.847Z,1086
2022-08-05T17:31:23.857Z,1106
2022-08-05T18:01:34.173Z,1277
2022-08-05T18:31:53.714Z,1581
2022-08-05T19:01:57.815Z,1265
2022-08-05T19:31:58.703Z,-1
2022-08-05T20:01:53.327Z,-1
2022-08-05T20:31:37.574Z,-1
2022-08-05T21:01:02.129Z,-1
2022-08-05T21:30:03.755Z,-1
2022-08-05T21:58:34.028Z,0
2022-08-05T22:26:32.503Z,-1
2022-08-05T22:53:58.260Z,-1
2022-08-05T23:20:51.999Z,0
2022-08-05T23:47:21.220Z,-1
